sensor_id;sensor_type;location;lat;lon;timestamp;P1;durP1;ratioP1;P2;durP2;ratioP2
67140;SDS011;54058;52.010;5.546;2023-07-31T00:00:24;1.13;;;0.93;;
67140;SDS011;54058;52.010;5.546;2023-07-31T00:02:51;1.00;;;0.88;;
67140;SDS011;54058;52.010;5.546;2023-07-31T00:05:17;0.70;;;0.70;;
67140;SDS011;54058;52.010;5.546;2023-07-31T00:07:42;0.80;;;0.80;;
67140;SDS011;54058;52.010;5.546;2023-07-31T00:10:08;0.70;;;0.70;;
67140;SDS011;54058;52.010;5.546;2023-07-31T00:12:34;1.05;;;0.90;;
67140;SDS011;54058;52.010;5.546;2023-07-31T00:15:00;0.93;;;0.93;;
67140;SDS011;54058;52.010;5.546;2023-07-31T00:17:26;1.42;;;1.02;;
67140;SDS011;54058;52.010;5.546;2023-07-31T00:19:51;4.53;;;1.17;;
67140;SDS011;54058;52.010;5.546;2023-07-31T00:22:17;1.35;;;1.02;;
67140;SDS011;54058;52.010;5.546;2023-07-31T00:24:43;1.60;;;1.50;;
67140;SDS011;54058;52.010;5.546;2023-07-31T00:27:09;2.55;;;1.40;;
67140;SDS011;54058;52.010;5.546;2023-07-31T00:29:35;3.35;;;1.60;;
67140;SDS011;54058;52.010;5.546;2023-07-31T00:32:00;5.18;;;2.47;;
67140;SDS011;54058;52.010;5.546;2023-07-31T00:34:26;8.05;;;2.65;;
67140;SDS011;54058;52.010;5.546;2023-07-31T00:36:52;7.00;;;2.80;;
67140;SDS011;54058;52.010;5.546;2023-07-31T00:39:18;5.95;;;2.72;;
67140;SDS011;54058;52.010;5.546;2023-07-31T00:41:44;12.75;;;4.40;;
67140;SDS011;54058;52.010;5.546;2023-07-31T00:44:10;19.42;;;4.57;;
67140;SDS011;54058;52.010;5.546;2023-07-31T00:46:35;20.98;;;5.10;;
67140;SDS011;54058;52.010;5.546;2023-07-31T00:49:02;13.00;;;3.95;;
67140;SDS011;54058;52.010;5.546;2023-07-31T00:51:28;17.08;;;5.07;;
67140;SDS011;54058;52.010;5.546;2023-07-31T00:53:54;19.40;;;5.20;;
67140;SDS011;54058;52.010;5.546;2023-07-31T00:56:21;20.33;;;5.05;;
67140;SDS011;54058;52.010;5.546;2023-07-31T00:58:47;19.80;;;5.05;;
67140;SDS011;54058;52.010;5.546;2023-07-31T01:01:13;19.98;;;5.90;;
67140;SDS011;54058;52.010;5.546;2023-07-31T01:06:28;23.02;;;5.22;;
67140;SDS011;54058;52.010;5.546;2023-07-31T01:11:57;25.80;;;5.95;;
67140;SDS011;54058;52.010;5.546;2023-07-31T01:14:26;16.40;;;5.30;;
67140;SDS011;54058;52.010;5.546;2023-07-31T01:16:52;19.73;;;5.18;;
67140;SDS011;54058;52.010;5.546;2023-07-31T01:19:20;15.75;;;4.78;;
67140;SDS011;54058;52.010;5.546;2023-07-31T01:24:49;16.98;;;5.40;;
67140;SDS011;54058;52.010;5.546;2023-07-31T01:27:31;15.38;;;4.68;;
67140;SDS011;54058;52.010;5.546;2023-07-31T01:30:09;17.50;;;5.40;;
67140;SDS011;54058;52.010;5.546;2023-07-31T01:32:42;16.77;;;5.45;;
67140;SDS011;54058;52.010;5.546;2023-07-31T01:35:10;19.05;;;5.30;;
67140;SDS011;54058;52.010;5.546;2023-07-31T01:37:36;22.88;;;5.35;;
67140;SDS011;54058;52.010;5.546;2023-07-31T01:40:02;19.60;;;5.82;;
67140;SDS011;54058;52.010;5.546;2023-07-31T01:42:29;19.98;;;4.93;;
67140;SDS011;54058;52.010;5.546;2023-07-31T01:44:55;19.73;;;5.60;;
67140;SDS011;54058;52.010;5.546;2023-07-31T01:47:20;19.92;;;5.80;;
67140;SDS011;54058;52.010;5.546;2023-07-31T01:49:46;14.75;;;4.70;;
67140;SDS011;54058;52.010;5.546;2023-07-31T01:52:11;16.75;;;5.30;;
67140;SDS011;54058;52.010;5.546;2023-07-31T01:54:37;11.95;;;4.85;;
67140;SDS011;54058;52.010;5.546;2023-07-31T01:57:03;18.58;;;5.25;;
67140;SDS011;54058;52.010;5.546;2023-07-31T01:59:28;20.38;;;5.43;;
67140;SDS011;54058;52.010;5.546;2023-07-31T02:01:54;20.77;;;6.30;;
67140;SDS011;54058;52.010;5.546;2023-07-31T02:04:19;17.20;;;5.20;;
67140;SDS011;54058;52.010;5.546;2023-07-31T02:06:45;14.13;;;4.75;;
67140;SDS011;54058;52.010;5.546;2023-07-31T02:09:10;15.07;;;4.15;;
67140;SDS011;54058;52.010;5.546;2023-07-31T02:11:36;13.77;;;4.20;;
67140;SDS011;54058;52.010;5.546;2023-07-31T02:14:02;9.13;;;3.78;;
67140;SDS011;54058;52.010;5.546;2023-07-31T02:16:27;12.63;;;3.83;;
67140;SDS011;54058;52.010;5.546;2023-07-31T02:18:53;11.40;;;3.45;;
67140;SDS011;54058;52.010;5.546;2023-07-31T02:21:18;13.73;;;3.95;;
67140;SDS011;54058;52.010;5.546;2023-07-31T02:23:44;12.95;;;3.92;;
67140;SDS011;54058;52.010;5.546;2023-07-31T02:26:10;11.25;;;3.72;;
67140;SDS011;54058;52.010;5.546;2023-07-31T02:28:35;12.73;;;3.78;;
67140;SDS011;54058;52.010;5.546;2023-07-31T02:31:01;9.98;;;4.15;;
67140;SDS011;54058;52.010;5.546;2023-07-31T02:33:26;12.52;;;4.07;;
67140;SDS011;54058;52.010;5.546;2023-07-31T02:35:52;12.07;;;4.10;;
67140;SDS011;54058;52.010;5.546;2023-07-31T02:38:18;11.45;;;4.57;;
67140;SDS011;54058;52.010;5.546;2023-07-31T02:40:43;12.13;;;3.80;;
67140;SDS011;54058;52.010;5.546;2023-07-31T02:43:09;13.52;;;4.22;;
67140;SDS011;54058;52.010;5.546;2023-07-31T02:45:35;11.80;;;3.95;;
67140;SDS011;54058;52.010;5.546;2023-07-31T02:48:01;13.13;;;4.40;;
67140;SDS011;54058;52.010;5.546;2023-07-31T02:50:26;14.50;;;4.60;;
67140;SDS011;54058;52.010;5.546;2023-07-31T02:52:55;21.02;;;5.30;;
67140;SDS011;54058;52.010;5.546;2023-07-31T02:55:20;16.95;;;5.05;;
67140;SDS011;54058;52.010;5.546;2023-07-31T02:57:46;15.27;;;4.53;;
67140;SDS011;54058;52.010;5.546;2023-07-31T03:00:12;15.03;;;4.77;;
67140;SDS011;54058;52.010;5.546;2023-07-31T03:02:38;15.53;;;5.37;;
67140;SDS011;54058;52.010;5.546;2023-07-31T03:05:04;18.98;;;4.85;;
67140;SDS011;54058;52.010;5.546;2023-07-31T03:07:30;12.27;;;4.82;;
67140;SDS011;54058;52.010;5.546;2023-07-31T03:09:55;20.80;;;5.38;;
67140;SDS011;54058;52.010;5.546;2023-07-31T03:12:21;18.60;;;4.90;;
67140;SDS011;54058;52.010;5.546;2023-07-31T03:14:47;18.17;;;5.22;;
67140;SDS011;54058;52.010;5.546;2023-07-31T03:17:12;14.48;;;4.70;;
67140;SDS011;54058;52.010;5.546;2023-07-31T03:19:38;15.73;;;5.13;;
67140;SDS011;54058;52.010;5.546;2023-07-31T03:22:04;17.40;;;5.13;;
67140;SDS011;54058;52.010;5.546;2023-07-31T03:24:30;18.65;;;5.60;;
67140;SDS011;54058;52.010;5.546;2023-07-31T03:26:56;26.10;;;5.07;;
67140;SDS011;54058;52.010;5.546;2023-07-31T03:29:21;13.45;;;5.00;;
67140;SDS011;54058;52.010;5.546;2023-07-31T03:31:47;19.58;;;5.65;;
67140;SDS011;54058;52.010;5.546;2023-07-31T03:34:13;21.00;;;5.43;;
67140;SDS011;54058;52.010;5.546;2023-07-31T03:36:39;12.35;;;5.03;;
67140;SDS011;54058;52.010;5.546;2023-07-31T03:39:04;13.35;;;5.22;;
67140;SDS011;54058;52.010;5.546;2023-07-31T03:41:30;17.10;;;4.95;;
67140;SDS011;54058;52.010;5.546;2023-07-31T03:43:55;16.05;;;5.15;;
67140;SDS011;54058;52.010;5.546;2023-07-31T03:46:21;20.63;;;5.18;;
67140;SDS011;54058;52.010;5.546;2023-07-31T03:48:48;15.60;;;4.47;;
67140;SDS011;54058;52.010;5.546;2023-07-31T03:51:14;21.50;;;5.25;;
67140;SDS011;54058;52.010;5.546;2023-07-31T03:53:39;18.00;;;5.25;;
67140;SDS011;54058;52.010;5.546;2023-07-31T03:56:05;13.90;;;4.70;;
67140;SDS011;54058;52.010;5.546;2023-07-31T03:58:31;16.67;;;4.95;;
67140;SDS011;54058;52.010;5.546;2023-07-31T04:00:56;17.48;;;4.90;;
67140;SDS011;54058;52.010;5.546;2023-07-31T04:03:22;16.83;;;5.10;;
67140;SDS011;54058;52.010;5.546;2023-07-31T04:05:47;16.15;;;5.18;;
67140;SDS011;54058;52.010;5.546;2023-07-31T04:08:13;13.32;;;5.10;;
67140;SDS011;54058;52.010;5.546;2023-07-31T04:10:39;14.60;;;5.30;;
67140;SDS011;54058;52.010;5.546;2023-07-31T04:13:04;20.13;;;5.55;;
67140;SDS011;54058;52.010;5.546;2023-07-31T04:15:30;15.60;;;4.95;;
67140;SDS011;54058;52.010;5.546;2023-07-31T04:17:55;11.45;;;4.45;;
67140;SDS011;54058;52.010;5.546;2023-07-31T04:20:21;12.85;;;4.47;;
67140;SDS011;54058;52.010;5.546;2023-07-31T04:22:47;12.77;;;4.38;;
67140;SDS011;54058;52.010;5.546;2023-07-31T04:25:13;22.08;;;4.75;;
67140;SDS011;54058;52.010;5.546;2023-07-31T04:27:39;15.65;;;4.53;;
67140;SDS011;54058;52.010;5.546;2023-07-31T04:30:05;12.35;;;4.95;;
67140;SDS011;54058;52.010;5.546;2023-07-31T04:32:31;14.77;;;5.03;;
67140;SDS011;54058;52.010;5.546;2023-07-31T04:34:57;19.25;;;5.60;;
67140;SDS011;54058;52.010;5.546;2023-07-31T04:37:22;13.65;;;4.65;;
67140;SDS011;54058;52.010;5.546;2023-07-31T04:39:48;15.30;;;5.10;;
67140;SDS011;54058;52.010;5.546;2023-07-31T04:42:13;15.95;;;4.95;;
67140;SDS011;54058;52.010;5.546;2023-07-31T04:44:39;11.48;;;4.85;;
67140;SDS011;54058;52.010;5.546;2023-07-31T04:47:06;18.27;;;4.90;;
67140;SDS011;54058;52.010;5.546;2023-07-31T04:51:57;10.70;;;3.93;;
67140;SDS011;54058;52.010;5.546;2023-07-31T04:54:23;12.43;;;4.32;;
67140;SDS011;54058;52.010;5.546;2023-07-31T04:56:49;12.00;;;4.38;;
67140;SDS011;54058;52.010;5.546;2023-07-31T04:59:14;16.75;;;4.80;;
67140;SDS011;54058;52.010;5.546;2023-07-31T05:01:40;17.70;;;4.60;;
67140;SDS011;54058;52.010;5.546;2023-07-31T05:04:05;17.00;;;4.93;;
67140;SDS011;54058;52.010;5.546;2023-07-31T05:06:31;16.27;;;4.13;;
67140;SDS011;54058;52.010;5.546;2023-07-31T05:08:57;10.52;;;4.38;;
67140;SDS011;54058;52.010;5.546;2023-07-31T05:11:23;13.27;;;5.05;;
67140;SDS011;54058;52.010;5.546;2023-07-31T05:13:48;11.05;;;4.78;;
67140;SDS011;54058;52.010;5.546;2023-07-31T05:16:14;9.25;;;4.15;;
67140;SDS011;54058;52.010;5.546;2023-07-31T05:18:39;13.80;;;3.85;;
67140;SDS011;54058;52.010;5.546;2023-07-31T05:21:05;10.10;;;3.90;;
67140;SDS011;54058;52.010;5.546;2023-07-31T05:23:31;12.68;;;3.58;;
67140;SDS011;54058;52.010;5.546;2023-07-31T05:28:30;11.77;;;3.20;;
67140;SDS011;54058;52.010;5.546;2023-07-31T05:30:59;11.13;;;3.38;;
67140;SDS011;54058;52.010;5.546;2023-07-31T05:33:26;14.32;;;3.70;;
67140;SDS011;54058;52.010;5.546;2023-07-31T05:35:52;10.68;;;4.22;;
67140;SDS011;54058;52.010;5.546;2023-07-31T05:38:17;10.05;;;3.90;;
67140;SDS011;54058;52.010;5.546;2023-07-31T05:40:43;10.90;;;3.97;;
67140;SDS011;54058;52.010;5.546;2023-07-31T05:43:08;5.35;;;3.15;;
67140;SDS011;54058;52.010;5.546;2023-07-31T05:45:34;12.80;;;3.58;;
67140;SDS011;54058;52.010;5.546;2023-07-31T05:48:00;12.40;;;4.45;;
67140;SDS011;54058;52.010;5.546;2023-07-31T05:50:26;8.05;;;3.33;;
67140;SDS011;54058;52.010;5.546;2023-07-31T05:52:52;10.60;;;3.70;;
67140;SDS011;54058;52.010;5.546;2023-07-31T05:55:17;7.45;;;3.28;;
67140;SDS011;54058;52.010;5.546;2023-07-31T05:57:43;7.93;;;3.70;;
67140;SDS011;54058;52.010;5.546;2023-07-31T06:00:11;10.18;;;4.10;;
67140;SDS011;54058;52.010;5.546;2023-07-31T06:02:37;13.45;;;3.60;;
67140;SDS011;54058;52.010;5.546;2023-07-31T06:05:03;9.02;;;3.80;;
67140;SDS011;54058;52.010;5.546;2023-07-31T06:07:31;9.60;;;4.22;;
67140;SDS011;54058;52.010;5.546;2023-07-31T06:09:57;7.63;;;3.85;;
67140;SDS011;54058;52.010;5.546;2023-07-31T06:12:28;7.88;;;3.78;;
67140;SDS011;54058;52.010;5.546;2023-07-31T06:14:54;6.85;;;3.60;;
67140;SDS011;54058;52.010;5.546;2023-07-31T06:17:19;8.98;;;3.13;;
67140;SDS011;54058;52.010;5.546;2023-07-31T06:19:46;7.03;;;3.72;;
67140;SDS011;54058;52.010;5.546;2023-07-31T06:22:11;9.85;;;3.78;;
67140;SDS011;54058;52.010;5.546;2023-07-31T06:24:37;9.45;;;3.67;;
67140;SDS011;54058;52.010;5.546;2023-07-31T06:27:03;8.23;;;3.15;;
67140;SDS011;54058;52.010;5.546;2023-07-31T06:29:29;8.27;;;3.20;;
67140;SDS011;54058;52.010;5.546;2023-07-31T06:31:55;7.88;;;3.17;;
67140;SDS011;54058;52.010;5.546;2023-07-31T06:34:20;7.05;;;2.90;;
67140;SDS011;54058;52.010;5.546;2023-07-31T06:36:46;7.38;;;2.90;;
67140;SDS011;54058;52.010;5.546;2023-07-31T06:39:12;8.52;;;3.08;;
67140;SDS011;54058;52.010;5.546;2023-07-31T06:41:38;5.30;;;2.60;;
67140;SDS011;54058;52.010;5.546;2023-07-31T06:44:04;4.13;;;2.47;;
67140;SDS011;54058;52.010;5.546;2023-07-31T06:46:29;6.60;;;3.10;;
67140;SDS011;54058;52.010;5.546;2023-07-31T06:48:55;5.00;;;2.75;;
67140;SDS011;54058;52.010;5.546;2023-07-31T06:51:21;6.72;;;2.45;;
67140;SDS011;54058;52.010;5.546;2023-07-31T06:53:46;7.55;;;2.40;;
67140;SDS011;54058;52.010;5.546;2023-07-31T06:56:12;2.92;;;1.90;;
67140;SDS011;54058;52.010;5.546;2023-07-31T06:58:38;5.05;;;2.55;;
67140;SDS011;54058;52.010;5.546;2023-07-31T07:01:04;5.25;;;2.60;;
67140;SDS011;54058;52.010;5.546;2023-07-31T07:03:29;3.40;;;1.90;;
67140;SDS011;54058;52.010;5.546;2023-07-31T07:05:55;4.20;;;1.98;;
67140;SDS011;54058;52.010;5.546;2023-07-31T07:08:21;4.63;;;2.17;;
67140;SDS011;54058;52.010;5.546;2023-07-31T07:10:46;2.78;;;1.92;;
67140;SDS011;54058;52.010;5.546;2023-07-31T07:13:12;4.97;;;1.60;;
67140;SDS011;54058;52.010;5.546;2023-07-31T07:15:38;3.63;;;2.10;;
67140;SDS011;54058;52.010;5.546;2023-07-31T07:18:04;2.80;;;1.75;;
67140;SDS011;54058;52.010;5.546;2023-07-31T07:20:30;3.90;;;1.63;;
67140;SDS011;54058;52.010;5.546;2023-07-31T07:22:55;2.95;;;1.80;;
67140;SDS011;54058;52.010;5.546;2023-07-31T07:25:21;2.00;;;1.60;;
67140;SDS011;54058;52.010;5.546;2023-07-31T07:27:47;3.40;;;1.75;;
67140;SDS011;54058;52.010;5.546;2023-07-31T07:30:12;3.70;;;1.50;;
67140;SDS011;54058;52.010;5.546;2023-07-31T07:32:39;2.65;;;1.83;;
67140;SDS011;54058;52.010;5.546;2023-07-31T07:35:05;3.25;;;1.85;;
67140;SDS011;54058;52.010;5.546;2023-07-31T07:37:31;3.75;;;1.45;;
67140;SDS011;54058;52.010;5.546;2023-07-31T07:39:57;4.70;;;2.03;;
67140;SDS011;54058;52.010;5.546;2023-07-31T07:42:23;2.30;;;1.60;;
67140;SDS011;54058;52.010;5.546;2023-07-31T07:44:48;2.80;;;1.80;;
67140;SDS011;54058;52.010;5.546;2023-07-31T07:47:14;2.53;;;1.80;;
67140;SDS011;54058;52.010;5.546;2023-07-31T07:49:39;2.65;;;1.60;;
67140;SDS011;54058;52.010;5.546;2023-07-31T07:52:05;2.72;;;1.85;;
67140;SDS011;54058;52.010;5.546;2023-07-31T07:54:31;3.05;;;2.05;;
67140;SDS011;54058;52.010;5.546;2023-07-31T07:56:57;3.40;;;2.07;;
67140;SDS011;54058;52.010;5.546;2023-07-31T07:59:23;1.85;;;1.52;;
67140;SDS011;54058;52.010;5.546;2023-07-31T08:01:49;2.08;;;1.88;;
67140;SDS011;54058;52.010;5.546;2023-07-31T08:04:14;3.42;;;1.85;;
67140;SDS011;54058;52.010;5.546;2023-07-31T08:06:40;4.85;;;2.25;;
67140;SDS011;54058;52.010;5.546;2023-07-31T08:09:06;2.13;;;1.88;;
67140;SDS011;54058;52.010;5.546;2023-07-31T08:11:32;4.10;;;1.93;;
67140;SDS011;54058;52.010;5.546;2023-07-31T08:13:58;3.47;;;1.90;;
67140;SDS011;54058;52.010;5.546;2023-07-31T08:16:23;2.95;;;1.85;;
67140;SDS011;54058;52.010;5.546;2023-07-31T08:18:49;2.55;;;1.60;;
67140;SDS011;54058;52.010;5.546;2023-07-31T08:21:15;2.05;;;1.80;;
67140;SDS011;54058;52.010;5.546;2023-07-31T08:23:40;2.20;;;1.42;;
67140;SDS011;54058;52.010;5.546;2023-07-31T08:26:06;3.08;;;1.55;;
67140;SDS011;54058;52.010;5.546;2023-07-31T08:28:32;1.85;;;1.63;;
67140;SDS011;54058;52.010;5.546;2023-07-31T08:30:57;2.23;;;1.60;;
67140;SDS011;54058;52.010;5.546;2023-07-31T08:33:23;3.15;;;1.83;;
67140;SDS011;54058;52.010;5.546;2023-07-31T08:35:49;3.08;;;1.90;;
67140;SDS011;54058;52.010;5.546;2023-07-31T08:38:14;1.93;;;1.73;;
67140;SDS011;54058;52.010;5.546;2023-07-31T08:40:40;2.70;;;1.95;;
67140;SDS011;54058;52.010;5.546;2023-07-31T08:43:06;2.60;;;1.60;;
67140;SDS011;54058;52.010;5.546;2023-07-31T08:45:34;2.67;;;1.73;;
67140;SDS011;54058;52.010;5.546;2023-07-31T08:48:00;1.48;;;1.33;;
67140;SDS011;54058;52.010;5.546;2023-07-31T08:50:26;1.50;;;1.40;;
67140;SDS011;54058;52.010;5.546;2023-07-31T08:52:53;2.28;;;1.30;;
67140;SDS011;54058;52.010;5.546;2023-07-31T08:55:19;1.70;;;1.48;;
67140;SDS011;54058;52.010;5.546;2023-07-31T08:57:50;3.10;;;1.20;;
67140;SDS011;54058;52.010;5.546;2023-07-31T09:00:17;2.95;;;1.40;;
67140;SDS011;54058;52.010;5.546;2023-07-31T09:02:54;2.30;;;1.40;;
67140;SDS011;54058;52.010;5.546;2023-07-31T09:05:22;1.33;;;1.23;;
67140;SDS011;54058;52.010;5.546;2023-07-31T09:07:49;1.48;;;1.30;;
67140;SDS011;54058;52.010;5.546;2023-07-31T09:10:16;1.90;;;1.30;;
67140;SDS011;54058;52.010;5.546;2023-07-31T09:12:42;2.03;;;1.30;;
67140;SDS011;54058;52.010;5.546;2023-07-31T09:15:08;2.08;;;1.58;;
67140;SDS011;54058;52.010;5.546;2023-07-31T09:17:35;2.90;;;1.53;;
67140;SDS011;54058;52.010;5.546;2023-07-31T09:22:42;1.83;;;1.70;;
67140;SDS011;54058;52.010;5.546;2023-07-31T09:25:19;3.75;;;1.80;;
67140;SDS011;54058;52.010;5.546;2023-07-31T09:30:12;3.72;;;2.25;;
67140;SDS011;54058;52.010;5.546;2023-07-31T09:32:38;2.40;;;1.70;;
67140;SDS011;54058;52.010;5.546;2023-07-31T09:35:14;5.25;;;2.08;;
67140;SDS011;54058;52.010;5.546;2023-07-31T09:37:56;6.68;;;2.90;;
67140;SDS011;54058;52.010;5.546;2023-07-31T09:40:32;4.03;;;2.27;;
67140;SDS011;54058;52.010;5.546;2023-07-31T09:43:03;4.85;;;2.63;;
67140;SDS011;54058;52.010;5.546;2023-07-31T09:45:35;2.90;;;2.33;;
67140;SDS011;54058;52.010;5.546;2023-07-31T09:48:09;4.03;;;2.97;;
67140;SDS011;54058;52.010;5.546;2023-07-31T09:50:39;5.53;;;2.72;;
67140;SDS011;54058;52.010;5.546;2023-07-31T09:53:06;3.00;;;2.70;;
67140;SDS011;54058;52.010;5.546;2023-07-31T09:55:32;7.75;;;2.80;;
67140;SDS011;54058;52.010;5.546;2023-07-31T09:57:59;3.67;;;3.00;;
67140;SDS011;54058;52.010;5.546;2023-07-31T10:00:29;3.35;;;2.70;;
67140;SDS011;54058;52.010;5.546;2023-07-31T10:02:57;5.78;;;3.25;;
67140;SDS011;54058;52.010;5.546;2023-07-31T10:05:26;7.03;;;3.13;;
67140;SDS011;54058;52.010;5.546;2023-07-31T10:07:55;6.03;;;3.20;;
67140;SDS011;54058;52.010;5.546;2023-07-31T10:12:48;4.03;;;3.28;;
67140;SDS011;54058;52.010;5.546;2023-07-31T10:15:15;7.07;;;3.97;;
67140;SDS011;54058;52.010;5.546;2023-07-31T10:17:41;6.20;;;3.70;;
67140;SDS011;54058;52.010;5.546;2023-07-31T10:20:07;6.80;;;3.43;;
67140;SDS011;54058;52.010;5.546;2023-07-31T10:22:35;10.93;;;4.00;;
67140;SDS011;54058;52.010;5.546;2023-07-31T10:25:01;9.50;;;3.50;;
67140;SDS011;54058;52.010;5.546;2023-07-31T10:27:27;8.30;;;3.58;;
67140;SDS011;54058;52.010;5.546;2023-07-31T10:29:54;4.53;;;3.03;;
67140;SDS011;54058;52.010;5.546;2023-07-31T10:32:21;5.93;;;3.25;;
67140;SDS011;54058;52.010;5.546;2023-07-31T10:34:49;4.10;;;2.83;;
67140;SDS011;54058;52.010;5.546;2023-07-31T10:37:19;6.53;;;3.75;;
67140;SDS011;54058;52.010;5.546;2023-07-31T10:40:03;4.38;;;3.33;;
67140;SDS011;54058;52.010;5.546;2023-07-31T10:42:34;5.03;;;2.85;;
67140;SDS011;54058;52.010;5.546;2023-07-31T10:45:05;6.88;;;3.35;;
67140;SDS011;54058;52.010;5.546;2023-07-31T10:47:38;3.92;;;3.03;;
67140;SDS011;54058;52.010;5.546;2023-07-31T10:50:25;3.90;;;2.92;;
67140;SDS011;54058;52.010;5.546;2023-07-31T10:52:55;5.35;;;2.80;;
67140;SDS011;54058;52.010;5.546;2023-07-31T10:58:07;5.93;;;3.08;;
67140;SDS011;54058;52.010;5.546;2023-07-31T11:00:36;4.10;;;2.78;;
67140;SDS011;54058;52.010;5.546;2023-07-31T11:05:53;6.88;;;3.20;;
67140;SDS011;54058;52.010;5.546;2023-07-31T11:08:28;3.28;;;2.30;;
67140;SDS011;54058;52.010;5.546;2023-07-31T11:13:27;2.80;;;2.20;;
67140;SDS011;54058;52.010;5.546;2023-07-31T11:15:53;4.33;;;2.40;;
67140;SDS011;54058;52.010;5.546;2023-07-31T11:18:18;2.40;;;2.17;;
67140;SDS011;54058;52.010;5.546;2023-07-31T11:20:44;4.53;;;2.00;;
67140;SDS011;54058;52.010;5.546;2023-07-31T11:23:11;2.93;;;2.60;;
67140;SDS011;54058;52.010;5.546;2023-07-31T11:25:37;3.50;;;2.55;;
67140;SDS011;54058;52.010;5.546;2023-07-31T11:28:10;4.38;;;2.40;;
67140;SDS011;54058;52.010;5.546;2023-07-31T11:30:41;4.95;;;2.90;;
67140;SDS011;54058;52.010;5.546;2023-07-31T11:33:08;4.35;;;2.80;;
67140;SDS011;54058;52.010;5.546;2023-07-31T11:35:48;2.58;;;2.30;;
67140;SDS011;54058;52.010;5.546;2023-07-31T11:40:56;5.38;;;2.60;;
67140;SDS011;54058;52.010;5.546;2023-07-31T11:43:27;4.15;;;2.50;;
67140;SDS011;54058;52.010;5.546;2023-07-31T11:45:57;4.18;;;2.53;;
67140;SDS011;54058;52.010;5.546;2023-07-31T11:48:25;3.17;;;2.63;;
67140;SDS011;54058;52.010;5.546;2023-07-31T11:50:52;3.58;;;2.78;;
67140;SDS011;54058;52.010;5.546;2023-07-31T11:53:38;3.20;;;2.20;;
67140;SDS011;54058;52.010;5.546;2023-07-31T11:56:10;7.38;;;2.50;;
67140;SDS011;54058;52.010;5.546;2023-07-31T11:58:39;3.88;;;2.63;;
67140;SDS011;54058;52.010;5.546;2023-07-31T12:01:05;3.50;;;2.17;;
67140;SDS011;54058;52.010;5.546;2023-07-31T12:05:58;4.70;;;2.05;;
67140;SDS011;54058;52.010;5.546;2023-07-31T12:08:24;2.87;;;2.40;;
67140;SDS011;54058;52.010;5.546;2023-07-31T12:10:53;2.10;;;1.93;;
67140;SDS011;54058;52.010;5.546;2023-07-31T12:13:26;2.17;;;1.90;;
67140;SDS011;54058;52.010;5.546;2023-07-31T12:15:56;3.23;;;1.63;;
67140;SDS011;54058;52.010;5.546;2023-07-31T12:18:23;1.88;;;1.63;;
67140;SDS011;54058;52.010;5.546;2023-07-31T12:20:58;2.67;;;1.83;;
67140;SDS011;54058;52.010;5.546;2023-07-31T12:23:29;2.67;;;1.80;;
67140;SDS011;54058;52.010;5.546;2023-07-31T12:26:09;2.33;;;1.60;;
67140;SDS011;54058;52.010;5.546;2023-07-31T12:28:45;5.55;;;1.90;;
67140;SDS011;54058;52.010;5.546;2023-07-31T12:33:45;1.90;;;1.45;;
67140;SDS011;54058;52.010;5.546;2023-07-31T12:36:12;2.33;;;1.80;;
67140;SDS011;54058;52.010;5.546;2023-07-31T12:38:40;2.55;;;2.30;;
67140;SDS011;54058;52.010;5.546;2023-07-31T12:41:05;3.37;;;2.27;;
67140;SDS011;54058;52.010;5.546;2023-07-31T12:43:32;7.73;;;2.10;;
67140;SDS011;54058;52.010;5.546;2023-07-31T12:46:01;2.17;;;1.98;;
67140;SDS011;54058;52.010;5.546;2023-07-31T12:48:27;10.80;;;2.47;;
67140;SDS011;54058;52.010;5.546;2023-07-31T12:50:52;4.17;;;2.53;;
67140;SDS011;54058;52.010;5.546;2023-07-31T12:53:18;4.10;;;2.90;;
67140;SDS011;54058;52.010;5.546;2023-07-31T12:55:43;3.17;;;2.60;;
67140;SDS011;54058;52.010;5.546;2023-07-31T12:58:09;3.53;;;2.80;;
67140;SDS011;54058;52.010;5.546;2023-07-31T13:00:35;3.50;;;3.20;;
67140;SDS011;54058;52.010;5.546;2023-07-31T13:03:00;3.67;;;2.97;;
67140;SDS011;54058;52.010;5.546;2023-07-31T13:05:26;3.60;;;3.15;;
67140;SDS011;54058;52.010;5.546;2023-07-31T13:07:53;3.30;;;2.90;;
67140;SDS011;54058;52.010;5.546;2023-07-31T13:10:19;3.77;;;2.93;;
67140;SDS011;54058;52.010;5.546;2023-07-31T13:12:44;6.85;;;3.05;;
67140;SDS011;54058;52.010;5.546;2023-07-31T13:15:10;3.97;;;3.17;;
67140;SDS011;54058;52.010;5.546;2023-07-31T13:17:37;4.45;;;3.50;;
67140;SDS011;54058;52.010;5.546;2023-07-31T13:20:02;5.83;;;3.27;;
67140;SDS011;54058;52.010;5.546;2023-07-31T13:22:28;5.25;;;3.38;;
67140;SDS011;54058;52.010;5.546;2023-07-31T13:24:54;3.93;;;3.50;;
67140;SDS011;54058;52.010;5.546;2023-07-31T13:27:20;5.47;;;3.00;;
67140;SDS011;54058;52.010;5.546;2023-07-31T13:29:46;8.27;;;3.80;;
67140;SDS011;54058;52.010;5.546;2023-07-31T13:32:15;4.28;;;3.40;;
67140;SDS011;54058;52.010;5.546;2023-07-31T13:34:42;3.92;;;3.28;;
67140;SDS011;54058;52.010;5.546;2023-07-31T13:37:07;4.73;;;3.10;;
67140;SDS011;54058;52.010;5.546;2023-07-31T13:39:34;3.93;;;3.40;;
67140;SDS011;54058;52.010;5.546;2023-07-31T13:41:59;4.80;;;3.05;;
67140;SDS011;54058;52.010;5.546;2023-07-31T13:44:26;3.80;;;3.50;;
67140;SDS011;54058;52.010;5.546;2023-07-31T13:46:51;3.65;;;3.03;;
67140;SDS011;54058;52.010;5.546;2023-07-31T13:49:17;6.67;;;3.50;;
67140;SDS011;54058;52.010;5.546;2023-07-31T13:51:43;4.07;;;3.10;;
67140;SDS011;54058;52.010;5.546;2023-07-31T13:54:08;4.47;;;3.60;;
67140;SDS011;54058;52.010;5.546;2023-07-31T13:56:36;4.88;;;3.70;;
67140;SDS011;54058;52.010;5.546;2023-07-31T13:59:02;3.87;;;3.47;;
67140;SDS011;54058;52.010;5.546;2023-07-31T14:01:28;7.40;;;3.80;;
67140;SDS011;54058;52.010;5.546;2023-07-31T14:03:53;6.33;;;4.33;;
67140;SDS011;54058;52.010;5.546;2023-07-31T14:06:19;7.10;;;3.87;;
67140;SDS011;54058;52.010;5.546;2023-07-31T14:08:45;7.20;;;4.10;;
67140;SDS011;54058;52.010;5.546;2023-07-31T14:11:10;7.10;;;4.43;;
67140;SDS011;54058;52.010;5.546;2023-07-31T14:13:36;5.67;;;4.20;;
67140;SDS011;54058;52.010;5.546;2023-07-31T14:16:02;7.03;;;4.23;;
67140;SDS011;54058;52.010;5.546;2023-07-31T14:18:27;4.13;;;3.60;;
67140;SDS011;54058;52.010;5.546;2023-07-31T14:20:53;6.20;;;4.37;;
67140;SDS011;54058;52.010;5.546;2023-07-31T14:23:18;10.17;;;4.17;;
67140;SDS011;54058;52.010;5.546;2023-07-31T14:25:45;7.32;;;4.45;;
67140;SDS011;54058;52.010;5.546;2023-07-31T14:28:11;7.40;;;4.15;;
67140;SDS011;54058;52.010;5.546;2023-07-31T14:30:37;7.13;;;4.07;;
67140;SDS011;54058;52.010;5.546;2023-07-31T14:33:02;5.80;;;3.47;;
67140;SDS011;54058;52.010;5.546;2023-07-31T14:35:28;7.20;;;3.73;;
67140;SDS011;54058;52.010;5.546;2023-07-31T14:37:54;5.30;;;3.03;;
67140;SDS011;54058;52.010;5.546;2023-07-31T14:40:19;5.93;;;4.00;;
67140;SDS011;54058;52.010;5.546;2023-07-31T14:42:45;6.53;;;3.53;;
67140;SDS011;54058;52.010;5.546;2023-07-31T14:45:11;8.40;;;3.43;;
67140;SDS011;54058;52.010;5.546;2023-07-31T14:47:37;5.33;;;3.43;;
67140;SDS011;54058;52.010;5.546;2023-07-31T14:50:02;6.27;;;3.27;;
67140;SDS011;54058;52.010;5.546;2023-07-31T14:52:29;7.03;;;3.20;;
67140;SDS011;54058;52.010;5.546;2023-07-31T14:54:54;5.37;;;3.00;;
67140;SDS011;54058;52.010;5.546;2023-07-31T14:57:20;5.67;;;3.40;;
67140;SDS011;54058;52.010;5.546;2023-07-31T14:59:46;5.27;;;3.00;;
67140;SDS011;54058;52.010;5.546;2023-07-31T15:02:12;6.15;;;3.22;;
67140;SDS011;54058;52.010;5.546;2023-07-31T15:04:40;4.93;;;3.20;;
67140;SDS011;54058;52.010;5.546;2023-07-31T15:07:06;5.73;;;3.47;;
67140;SDS011;54058;52.010;5.546;2023-07-31T15:09:32;3.90;;;2.77;;
67140;SDS011;54058;52.010;5.546;2023-07-31T15:11:59;6.32;;;3.20;;
67140;SDS011;54058;52.010;5.546;2023-07-31T15:14:24;6.33;;;3.10;;
67140;SDS011;54058;52.010;5.546;2023-07-31T15:16:52;4.47;;;2.78;;